Terminal Aerodrome Forecast
Issued by NWS

Home | Current Version | Previous Version | Text Only | Print | Product List | Glossary On
Versions: 1 2 3 4 5 6 7 8 9 10 11 12 13 14 15 16 17 18
000
FTUS42 KGSP 232320
TAFHKY
TAF
KHKY 232320Z 2400/2424 14003KT P6SM SCT060
      TEMPO 2400/2404 OVC060
     FM240400 09003KT P6SM BKN060
     FM240900 VRB03KT 2SM BR BKN003
     FM241100 VRB03KT 1/2SM FG BKN003
     FM241400 17005KT P6SM BKN045
     FM242000 19008G17KT P6SM SCT150=

USA.gov is the U.S. government's official web portal to all federal, state and local government web resources and services.